createdAt,value
2022-10-13T00:00:33.468Z,9.20
2022-10-13T00:03:25.667Z,9.37
2022-10-13T00:05:54.133Z,9.57
2022-10-13T00:08:43.085Z,8.97
2022-10-13T00:11:15.264Z,9.70
2022-10-13T00:14:04.306Z,10.63
2022-10-13T00:16:43.266Z,10.23
2022-10-13T00:19:24.090Z,10.70
2022-10-13T00:21:53.005Z,10.47
2022-10-13T00:24:32.562Z,10.40
2022-10-13T00:27:08.944Z,10.00
2022-10-13T00:29:48.454Z,10.30
2022-10-13T00:32:32.644Z,10.17
2022-10-13T00:37:49.789Z,10.73
2022-10-13T00:40:29.695Z,10.40
2022-10-13T00:43:10.250Z,9.37
2022-10-13T00:45:51.964Z,9.53
2022-10-13T00:48:29.577Z,10.17
2022-10-13T00:51:22.438Z,10.53
2022-10-13T00:53:50.956Z,9.90
2022-10-13T00:59:34.906Z,10.33
2022-10-13T01:02:38.693Z,10.37
2022-10-13T01:05:16.791Z,9.87
2022-10-13T01:11:16.451Z,10.77
2022-10-13T01:13:53.916Z,11.00
2022-10-13T01:16:34.794Z,10.00
2022-10-13T01:19:13.580Z,10.87
2022-10-13T01:21:54.270Z,12.07
2022-10-13T01:24:35.295Z,10.40
2022-10-13T01:27:26.012Z,10.20
2022-10-13T01:30:18.916Z,10.97
2022-10-13T01:33:11.233Z,10.73
2022-10-13T01:36:03.641Z,10.40
2022-10-13T01:38:43.419Z,11.00
2022-10-13T01:41:23.289Z,10.77
2022-10-13T01:47:08.889Z,10.77
2022-10-13T01:50:24.333Z,10.87
2022-10-13T01:52:53.594Z,11.27
2022-10-13T01:55:29.384Z,11.27
2022-10-13T01:58:00.828Z,11.40
2022-10-13T02:00:51.000Z,11.43
2022-10-13T02:03:32.971Z,11.37
2022-10-13T02:06:21.698Z,11.70
2022-10-13T02:09:05.345Z,11.00
2022-10-13T02:11:55.120Z,10.83
2022-10-13T02:14:33.905Z,10.93
2022-10-13T02:17:14.416Z,10.70
2022-10-13T02:19:55.105Z,11.27
2022-10-13T02:22:35.959Z,12.60
2022-10-13T02:25:15.239Z,11.43
2022-10-13T02:28:04.716Z,13.30
2022-10-13T02:30:36.265Z,12.60
2022-10-13T02:33:26.763Z,11.87
2022-10-13T02:36:03.874Z,12.80
2022-10-13T02:38:43.888Z,12.47
2022-10-13T02:41:16.179Z,12.30
2022-10-13T02:43:54.762Z,12.30
2022-10-13T02:46:31.211Z,12.37
2022-10-13T02:49:24.722Z,11.80
2022-10-13T02:51:55.129Z,12.40
2022-10-13T02:54:32.001Z,11.60
2022-10-13T02:57:10.397Z,12.17
2022-10-13T02:59:52.163Z,11.80
2022-10-13T03:02:29.326Z,10.93
2022-10-13T03:05:01.305Z,11.47
2022-10-13T03:07:29.619Z,11.50
2022-10-13T03:10:06.547Z,11.70
2022-10-13T03:13:01.100Z,11.37
2022-10-13T03:15:29.780Z,10.67
2022-10-13T03:18:07.012Z,11.43
2022-10-13T03:20:47.018Z,11.97
2022-10-13T03:23:15.937Z,10.93
2022-10-13T03:27:22.756Z,12.17
2022-10-13T03:28:45.773Z,12.57
2022-10-13T03:34:08.349Z,12.33
2022-10-13T03:36:47.355Z,11.50
2022-10-13T03:39:15.910Z,12.07
2022-10-13T03:41:53.693Z,10.97
2022-10-13T03:45:09.200Z,11.70
2022-10-13T03:47:48.332Z,11.17
2022-10-13T03:50:31.284Z,11.80
2022-10-13T03:53:07.746Z,11.57
2022-10-13T03:55:50.396Z,11.33
2022-10-13T03:58:30.965Z,11.83
2022-10-13T04:01:17.680Z,11.60
2022-10-13T04:04:00.279Z,11.20
2022-10-13T04:06:31.979Z,11.70
2022-10-13T04:09:08.767Z,11.37
2022-10-13T04:11:38.513Z,11.90
2022-10-13T04:14:18.883Z,11.57
2022-10-13T04:16:47.998Z,10.50
2022-10-13T04:19:24.030Z,11.43
2022-10-13T04:22:18.744Z,11.20
2022-10-13T04:24:56.459Z,11.10
2022-10-13T04:27:35.349Z,11.57
2022-10-13T04:30:28.802Z,11.47
2022-10-13T04:32:57.165Z,11.63
2022-10-13T04:35:25.748Z,10.83
2022-10-13T04:37:58.188Z,11.43
2022-10-13T04:40:43.045Z,12.10
2022-10-13T04:43:11.922Z,11.47
2022-10-13T04:45:49.658Z,12.00
2022-10-13T04:48:20.675Z,11.00
2022-10-13T04:50:52.653Z,12.07
2022-10-13T04:53:36.393Z,11.73
2022-10-13T04:56:16.509Z,11.23
2022-10-13T04:58:48.455Z,11.57
2022-10-13T05:01:37.054Z,11.90
2022-10-13T05:04:07.942Z,11.67
2022-10-13T05:07:12.704Z,11.23
2022-10-13T05:09:50.146Z,11.77
2022-10-13T05:12:28.859Z,11.10
2022-10-13T05:15:00.057Z,11.07
2022-10-13T05:17:37.918Z,11.43
2022-10-13T05:20:17.749Z,11.57
2022-10-13T05:22:47.478Z,11.93
2022-10-13T05:25:15.761Z,10.93
2022-10-13T05:30:57.461Z,11.73
2022-10-13T05:33:37.124Z,11.53
2022-10-13T05:36:16.686Z,11.93
2022-10-13T05:38:55.925Z,11.90
2022-10-13T05:41:36.317Z,11.20
2022-10-13T05:44:16.295Z,10.73
2022-10-13T05:46:47.206Z,10.97
2022-10-13T05:49:25.784Z,10.50
2022-10-13T05:54:44.336Z,10.50
2022-10-13T05:57:22.174Z,11.03
2022-10-13T05:59:54.144Z,10.60
2022-10-13T06:05:26.582Z,10.60
2022-10-13T06:08:16.268Z,11.00
2022-10-13T06:10:55.029Z,11.00
2022-10-13T06:13:25.153Z,10.50
2022-10-13T06:15:53.555Z,11.40
2022-10-13T06:18:28.994Z,13.03
2022-10-13T06:21:08.922Z,11.97
2022-10-13T06:23:40.354Z,12.07
2022-10-13T06:26:17.876Z,12.13
2022-10-13T06:29:00.077Z,12.47
2022-10-13T06:31:36.148Z,12.23
2022-10-13T06:34:07.540Z,11.83
2022-10-13T06:36:57.143Z,12.87
2022-10-13T06:39:27.193Z,12.00
2022-10-13T06:41:55.698Z,11.80
2022-10-13T06:44:43.151Z,10.57
2022-10-13T06:47:13.882Z,10.87
2022-10-13T06:49:42.379Z,10.83
2022-10-13T06:52:22.886Z,10.87
2022-10-13T06:55:00.518Z,10.73
2022-10-13T06:57:29.325Z,11.07
2022-10-13T06:59:57.764Z,11.80
2022-10-13T07:02:36.509Z,11.60
2022-10-13T07:05:13.755Z,9.67
2022-10-13T07:07:50.388Z,9.70
2022-10-13T07:10:24.691Z,11.40
2022-10-13T07:15:44.835Z,9.03
2022-10-13T07:18:20.038Z,9.27
2022-10-13T07:20:51.999Z,8.63
2022-10-13T07:23:31.596Z,8.47
2022-10-13T07:26:08.822Z,8.47
2022-10-13T07:28:47.475Z,8.07
2022-10-13T07:31:27.509Z,8.70
2022-10-13T07:34:06.999Z,7.97
2022-10-13T07:36:48.191Z,8.00
2022-10-13T07:39:18.897Z,8.30
2022-10-13T07:44:47.004Z,7.23
2022-10-13T07:47:18.717Z,8.00
2022-10-13T07:49:58.191Z,8.10
2022-10-13T07:52:28.002Z,7.80
2022-10-13T07:55:15.331Z,7.90
2022-10-13T07:57:44.904Z,7.80
2022-10-13T08:00:13.847Z,7.87
2022-10-13T08:02:51.031Z,7.13
2022-10-13T08:05:29.479Z,7.50
2022-10-13T08:07:59.753Z,7.33
2022-10-13T08:10:36.930Z,7.53
2022-10-13T08:13:08.377Z,7.73
2022-10-13T08:15:38.909Z,7.90
2022-10-13T08:18:23.616Z,8.43
2022-10-13T08:21:04.248Z,7.80
2022-10-13T08:23:47.906Z,8.00
2022-10-13T08:26:39.800Z,8.73
2022-10-13T08:29:23.941Z,7.95
2022-10-13T08:31:58.986Z,7.45
2022-10-13T08:34:27.520Z,8.03
2022-10-13T08:37:04.684Z,7.27
2022-10-13T08:39:44.094Z,7.90
2022-10-13T08:42:25.307Z,7.50
2022-10-13T08:45:28.767Z,8.07
2022-10-13T08:48:07.470Z,6.23
2022-10-13T08:50:48.523Z,7.00
2022-10-13T08:53:27.904Z,6.90
2022-10-13T08:55:57.903Z,7.03
2022-10-13T08:58:35.428Z,7.90
2022-10-13T09:01:15.530Z,8.77
2022-10-13T09:03:57.403Z,9.27
2022-10-13T09:06:36.393Z,9.60
2022-10-13T09:12:04.973Z,9.87
2022-10-13T09:14:48.111Z,9.70
2022-10-13T09:20:17.444Z,11.60
2022-10-13T09:23:04.693Z,11.43
2022-10-13T09:25:49.374Z,11.70
2022-10-13T09:28:21.490Z,11.93
2022-10-13T09:31:13.847Z,13.10
2022-10-13T09:34:04.657Z,12.43
2022-10-13T09:36:32.947Z,12.77
2022-10-13T09:39:25.003Z,12.27
2022-10-13T09:42:01.623Z,13.87
2022-10-13T09:44:43.753Z,12.87
2022-10-13T09:47:23.121Z,12.52
2022-10-13T09:50:06.628Z,11.83
2022-10-13T09:52:55.024Z,12.23
2022-10-13T09:55:48.676Z,12.10
2022-10-13T09:58:26.543Z,11.83
2022-10-13T10:00:56.073Z,11.75
2022-10-13T10:03:44.949Z,11.00
2022-10-13T10:06:37.202Z,12.05
2022-10-13T10:09:08.128Z,12.00
2022-10-13T10:11:46.519Z,10.85
2022-10-13T10:14:24.792Z,11.52
2022-10-13T10:17:17.144Z,11.15
2022-10-13T10:19:57.429Z,10.38
2022-10-13T10:22:37.804Z,10.73
2022-10-13T10:25:17.545Z,10.85
2022-10-13T10:27:47.013Z,11.77
2022-10-13T10:30:36.510Z,11.57
2022-10-13T10:33:06.240Z,12.52
2022-10-13T10:35:46.454Z,11.87
2022-10-13T10:38:24.997Z,12.02
2022-10-13T10:41:05.969Z,11.98
2022-10-13T10:43:44.455Z,11.73
2022-10-13T10:46:22.687Z,16.17
2022-10-13T10:49:02.277Z,16.48
2022-10-13T10:51:42.298Z,15.07
2022-10-13T10:54:21.494Z,15.90
2022-10-13T10:56:54.479Z,15.83
2022-10-13T10:59:29.316Z,16.13
2022-10-13T11:02:06.928Z,18.43
2022-10-13T11:04:38.486Z,17.87
2022-10-13T11:07:11.664Z,17.20
2022-10-13T11:09:58.687Z,16.13
2022-10-13T11:12:27.026Z,15.23
2022-10-13T11:15:06.069Z,14.00
2022-10-13T11:17:36.982Z,12.07
2022-10-13T11:20:28.378Z,11.57
2022-10-13T11:23:11.555Z,9.85
2022-10-13T11:25:42.750Z,8.25
2022-10-13T11:28:28.981Z,9.00
2022-10-13T11:30:58.608Z,8.67
2022-10-13T11:33:34.380Z,9.10
2022-10-13T11:36:18.314Z,9.40
2022-10-13T11:38:51.103Z,10.10
2022-10-13T11:41:27.088Z,9.65
2022-10-13T11:43:58.361Z,10.17
2022-10-13T11:46:28.544Z,10.77
2022-10-13T11:49:05.770Z,9.57
2022-10-13T11:51:39.463Z,10.43
2022-10-13T11:54:12.950Z,9.73
2022-10-13T11:56:48.919Z,11.33
2022-10-13T11:59:25.084Z,10.53
2022-10-13T12:01:57.413Z,11.07
2022-10-13T12:04:27.800Z,11.20
2022-10-13T12:06:58.665Z,11.90
2022-10-13T12:09:26.981Z,10.93
2022-10-13T12:12:00.776Z,11.48
2022-10-13T12:14:31.407Z,11.65
2022-10-13T12:17:01.194Z,12.45
2022-10-13T12:19:31.071Z,12.30
2022-10-13T12:22:00.328Z,11.60
2022-10-13T12:24:29.708Z,14.23
2022-10-13T12:26:58.953Z,13.30
2022-10-13T12:29:34.812Z,12.80
2022-10-13T12:32:05.958Z,12.48
2022-10-13T12:34:36.451Z,12.73
2022-10-13T12:37:05.661Z,12.45
2022-10-13T12:39:35.420Z,12.57
2022-10-13T12:42:05.713Z,12.65
2022-10-13T12:44:36.033Z,12.80
2022-10-13T12:47:05.136Z,12.13
2022-10-13T12:49:34.879Z,12.77
2022-10-13T12:52:07.031Z,12.60
2022-10-13T12:54:36.587Z,11.97
2022-10-13T12:57:07.890Z,11.65
2022-10-13T12:59:43.507Z,11.88
2022-10-13T13:02:36.072Z,10.93
2022-10-13T13:05:04.516Z,10.23
2022-10-13T13:07:33.958Z,4.57
2022-10-13T13:10:16.883Z,3.60
2022-10-13T13:12:45.635Z,3.70
2022-10-13T13:15:33.751Z,3.17
2022-10-13T13:18:20.733Z,2.00
2022-10-13T13:20:49.205Z,2.03
2022-10-13T13:23:19.339Z,1.90
2022-10-13T13:25:49.850Z,1.53
2022-10-13T13:28:18.178Z,1.13
2022-10-13T13:30:48.036Z,1.10
2022-10-13T13:33:16.535Z,1.00
2022-10-13T13:35:45.169Z,0.88
2022-10-13T13:38:13.677Z,0.80
2022-10-13T13:40:42.401Z,0.80
2022-10-13T13:43:10.976Z,0.90
2022-10-13T13:45:39.391Z,0.80
2022-10-13T13:48:09.270Z,0.80
2022-10-13T13:50:38.265Z,1.00
2022-10-13T13:53:07.261Z,1.00
2022-10-13T13:55:35.874Z,1.13
2022-10-13T13:58:04.306Z,1.00
2022-10-13T14:00:32.752Z,1.20
2022-10-13T14:03:01.229Z,1.10
2022-10-13T14:05:30.863Z,0.90
2022-10-13T14:07:59.219Z,0.97
2022-10-13T14:10:29.270Z,1.13
2022-10-13T14:12:57.628Z,1.07
2022-10-13T14:15:29.620Z,0.97
2022-10-13T14:17:58.459Z,1.13
2022-10-13T14:20:26.798Z,1.27
2022-10-13T14:22:56.460Z,1.33
2022-10-13T14:25:24.893Z,1.00
2022-10-13T14:27:53.186Z,1.20
2022-10-13T14:30:21.733Z,1.00
2022-10-13T14:32:50.054Z,0.87
2022-10-13T14:35:18.553Z,0.97
2022-10-13T14:37:46.854Z,1.13
2022-10-13T14:40:16.558Z,1.17
2022-10-13T14:42:44.842Z,0.95
2022-10-13T14:45:13.456Z,0.93
2022-10-13T14:47:41.718Z,1.00
2022-10-13T14:50:10.770Z,1.00
2022-10-13T14:52:39.264Z,1.00
2022-10-13T14:55:07.711Z,2.85
2022-10-13T14:57:37.317Z,7.23
2022-10-13T15:00:05.970Z,0.90
2022-10-13T15:02:34.418Z,1.02
2022-10-13T15:05:02.904Z,0.97
2022-10-13T15:07:31.197Z,0.70
2022-10-13T15:10:06.843Z,0.93
2022-10-13T15:12:36.777Z,0.73
2022-10-13T15:15:06.597Z,0.90
2022-10-13T15:17:37.581Z,1.10
2022-10-13T15:20:06.508Z,0.90
2022-10-13T15:22:34.863Z,0.80
2022-10-13T15:25:04.407Z,1.00
2022-10-13T15:27:32.636Z,1.00
2022-10-13T15:30:02.348Z,0.90
2022-10-13T15:32:30.950Z,0.85
2022-10-13T15:34:59.295Z,1.13
2022-10-13T15:37:27.615Z,1.02
2022-10-13T15:39:57.560Z,0.83
2022-10-13T15:42:26.141Z,1.00
2022-10-13T15:45:09.293Z,1.10
2022-10-13T15:47:39.872Z,1.05
2022-10-13T15:50:08.786Z,0.80
2022-10-13T15:52:39.320Z,0.93
2022-10-13T15:55:07.885Z,1.03
2022-10-13T15:57:36.182Z,1.27
2022-10-13T16:00:04.815Z,0.97
2022-10-13T16:02:33.086Z,0.80
2022-10-13T16:05:05.678Z,1.27
2022-10-13T16:07:34.023Z,1.00
2022-10-13T16:10:02.867Z,1.00
2022-10-13T16:12:31.348Z,1.27
2022-10-13T16:14:59.707Z,1.00
2022-10-13T16:17:28.102Z,1.35
2022-10-13T16:19:56.392Z,1.20
2022-10-13T16:22:26.037Z,1.20
2022-10-13T16:24:54.479Z,1.30
2022-10-13T16:27:24.643Z,1.53
2022-10-13T16:29:52.966Z,1.30
2022-10-13T16:32:21.638Z,1.60
2022-10-13T16:34:51.925Z,1.30
2022-10-13T16:37:20.563Z,1.43
2022-10-13T16:39:51.885Z,11.20
2022-10-13T16:42:20.807Z,13.20
2022-10-13T16:44:49.041Z,22.87
2022-10-13T16:47:18.684Z,24.30
2022-10-13T16:49:47.430Z,14.53
2022-10-13T16:52:15.702Z,13.10
2022-10-13T16:54:44.206Z,7.73
2022-10-13T16:57:13.876Z,8.53
2022-10-13T16:59:42.821Z,4.60
2022-10-13T17:02:14.536Z,3.80
2022-10-13T17:04:42.920Z,3.77
2022-10-13T17:07:11.393Z,3.00
2022-10-13T17:09:39.693Z,2.47
2022-10-13T17:12:08.324Z,2.20
2022-10-13T17:14:37.981Z,3.27
2022-10-13T17:17:06.366Z,2.40
2022-10-13T17:19:34.738Z,2.50
2022-10-13T17:22:03.246Z,2.40
2022-10-13T17:24:31.555Z,2.50
2022-10-13T17:27:00.491Z,2.97
2022-10-13T17:29:28.782Z,2.93
2022-10-13T17:32:09.278Z,3.30
2022-10-13T17:34:38.294Z,3.10
2022-10-13T17:37:10.765Z,3.37
2022-10-13T17:39:40.001Z,3.57
2022-10-13T17:42:08.457Z,4.17
2022-10-13T17:44:36.816Z,4.10
2022-10-13T17:47:07.269Z,4.00
2022-10-13T17:49:35.646Z,4.03
2022-10-13T17:52:03.946Z,3.63
2022-10-13T17:54:32.349Z,3.57
2022-10-13T17:57:00.658Z,3.40
2022-10-13T17:59:29.138Z,3.60
2022-10-13T18:01:57.454Z,3.50
2022-10-13T18:04:29.093Z,3.60
2022-10-13T18:06:57.575Z,3.70
2022-10-13T18:09:25.926Z,4.00
2022-10-13T18:11:55.261Z,4.00
2022-10-13T18:14:26.182Z,3.67
2022-10-13T18:16:57.412Z,4.10
2022-10-13T18:19:27.751Z,4.10
2022-10-13T18:21:59.882Z,3.80
2022-10-13T18:24:28.453Z,4.13
2022-10-13T18:26:59.373Z,4.40
2022-10-13T18:29:30.651Z,4.37
2022-10-13T18:32:11.308Z,4.60
2022-10-13T18:34:47.670Z,4.87
2022-10-13T18:37:22.146Z,4.40
2022-10-13T18:39:51.506Z,4.57
2022-10-13T18:42:27.644Z,5.70
2022-10-13T18:44:56.390Z,5.20
2022-10-13T18:47:25.270Z,4.87
2022-10-13T18:49:56.019Z,5.40
2022-10-13T18:52:31.876Z,4.80
2022-10-13T18:55:02.007Z,5.60
2022-10-13T18:57:34.601Z,4.70
2022-10-13T19:00:05.407Z,5.30
2022-10-13T19:02:33.785Z,4.80
2022-10-13T19:05:04.236Z,5.03
2022-10-13T19:07:39.031Z,4.80
2022-10-13T19:10:08.238Z,5.07
2022-10-13T19:12:38.959Z,5.30
2022-10-13T19:15:14.166Z,4.70
2022-10-13T19:17:45.096Z,4.60
2022-10-13T19:20:15.019Z,4.90
2022-10-13T19:22:43.412Z,5.20
2022-10-13T19:25:13.163Z,4.67
2022-10-13T19:27:47.212Z,5.17
2022-10-13T19:30:15.768Z,5.03
2022-10-13T19:32:46.693Z,4.90
2022-10-13T19:35:16.320Z,4.47
2022-10-13T19:37:44.697Z,4.80
2022-10-13T19:40:13.575Z,5.07
2022-10-13T19:42:41.951Z,5.30
2022-10-13T19:45:12.224Z,4.97
2022-10-13T19:47:41.411Z,5.20
2022-10-13T19:50:10.502Z,5.50
2022-10-13T19:52:41.694Z,5.37
2022-10-13T19:55:10.625Z,5.60
2022-10-13T19:57:39.081Z,5.27
2022-10-13T20:00:11.668Z,5.23
2022-10-13T20:02:41.040Z,5.57
2022-10-13T20:05:13.412Z,5.47
2022-10-13T20:07:43.629Z,4.93
2022-10-13T20:10:12.452Z,5.10
2022-10-13T20:12:41.253Z,4.97
2022-10-13T20:15:12.430Z,4.87
2022-10-13T20:17:41.337Z,5.30
2022-10-13T20:20:10.982Z,5.30
2022-10-13T20:22:40.049Z,5.17
2022-10-13T20:25:13.194Z,5.47
2022-10-13T20:27:42.435Z,5.80
2022-10-13T20:30:13.080Z,5.27
2022-10-13T20:32:44.103Z,5.93
2022-10-13T20:35:12.926Z,5.97
2022-10-13T20:37:41.852Z,5.50
2022-10-13T20:40:12.113Z,5.77
2022-10-13T20:42:41.561Z,5.67
2022-10-13T20:45:32.442Z,5.17
2022-10-13T20:48:23.262Z,5.97
2022-10-13T20:50:52.409Z,5.80
2022-10-13T20:53:23.238Z,5.83
2022-10-13T20:55:58.209Z,6.23
2022-10-13T20:58:27.151Z,6.20
2022-10-13T21:00:56.249Z,5.80
2022-10-13T21:03:27.676Z,6.20
2022-10-13T21:05:58.042Z,5.77
2022-10-13T21:08:26.401Z,6.60
2022-10-13T21:10:55.018Z,6.80
2022-10-13T21:13:25.805Z,6.03
2022-10-13T21:15:55.119Z,6.97
2022-10-13T21:18:23.721Z,6.23
2022-10-13T21:20:53.485Z,6.37
2022-10-13T21:23:21.838Z,6.87
2022-10-13T21:25:50.177Z,7.80
2022-10-13T21:28:18.486Z,7.00
2022-10-13T21:30:48.233Z,7.57
2022-10-13T21:33:16.558Z,6.87
2022-10-13T21:35:45.143Z,7.07
2022-10-13T21:38:13.630Z,7.23
2022-10-13T21:40:42.263Z,7.60
2022-10-13T21:43:10.671Z,7.57
2022-10-13T21:45:41.063Z,7.27
2022-10-13T21:48:10.852Z,7.53
2022-10-13T21:50:39.300Z,8.40
2022-10-13T21:53:28.374Z,7.60
2022-10-13T21:55:58.057Z,8.17
2022-10-13T21:58:26.617Z,8.90
2022-10-13T22:00:57.352Z,9.00
2022-10-13T22:03:28.125Z,9.47
2022-10-13T22:05:56.515Z,8.43
2022-10-13T22:08:37.991Z,9.00
2022-10-13T22:11:07.682Z,8.47
2022-10-13T22:13:36.573Z,8.20
2022-10-13T22:16:05.674Z,8.70
2022-10-13T22:18:35.610Z,9.73
2022-10-13T22:21:06.494Z,9.97
2022-10-13T22:23:36.079Z,9.20
2022-10-13T22:26:04.853Z,10.67
2022-10-13T22:28:37.282Z,10.63
2022-10-13T22:31:06.644Z,10.27
2022-10-13T22:33:40.140Z,11.47
2022-10-13T22:36:09.099Z,12.83
2022-10-13T22:38:37.922Z,13.50
2022-10-13T22:41:06.927Z,13.90
2022-10-13T22:43:35.923Z,12.20
2022-10-13T22:46:04.691Z,13.00
2022-10-13T22:48:38.243Z,13.40
2022-10-13T22:51:12.414Z,12.83
2022-10-13T22:54:03.775Z,13.50
2022-10-13T22:56:33.329Z,14.37
2022-10-13T22:59:02.620Z,14.40
2022-10-13T23:01:32.464Z,13.97
2022-10-13T23:04:01.240Z,12.97
2022-10-13T23:06:33.169Z,13.60
2022-10-13T23:09:04.498Z,13.77
2022-10-13T23:11:32.928Z,14.13
2022-10-13T23:14:04.756Z,14.53
2022-10-13T23:16:41.068Z,13.57
2022-10-13T23:19:09.343Z,14.13
2022-10-13T23:21:39.170Z,14.90
2022-10-13T23:24:08.546Z,14.13
2022-10-13T23:26:37.152Z,14.67
2022-10-13T23:29:05.722Z,14.33
2022-10-13T23:31:34.247Z,14.27
2022-10-13T23:34:03.979Z,15.33
2022-10-13T23:36:34.834Z,16.77
2022-10-13T23:39:06.306Z,16.00
2022-10-13T23:41:36.928Z,15.20
2022-10-13T23:44:06.099Z,16.90
2022-10-13T23:46:35.600Z,16.67
2022-10-13T23:49:04.532Z,16.87
2022-10-13T23:51:34.610Z,16.70
2022-10-13T23:54:23.485Z,17.00
2022-10-13T23:56:53.818Z,15.80
2022-10-13T23:59:22.473Z,16.43
